Time;durP1;ratioP1;P1;durP2;ratioP2;P2;SDS_P1;SDS_P2;PMS_P1;PMS_P2;Temp;Humidity;BMP_temperature;BMP_pressure;BME280_temperature;BME280_humidity;BME280_pressure;Samples;Min_cycle;Max_cycle;Signal;HPM_P1;HPM_P2
2023/06/04 00:00:16;;;;;;;7.05;4.30;;;;;;;;;;5038151;28;20175;-86
2023/06/04 00:02:42;;;;;;;10.35;4.43;;;;;;;;;;5037970;28;20044;-85
2023/06/04 00:05:08;;;;;;;7.22;4.00;;;;;;;;;;5019789;28;20617;-86
2023/06/04 00:07:33;;;;;;;7.88;4.22;;;;;;;;;;5038538;28;20041;-86
2023/06/04 00:09:59;;;;;;;7.28;3.83;;;;;;;;;;5037981;28;20403;-86
2023/06/04 00:12:24;;;;;;;8.05;4.25;;;;;;;;;;5037692;28;20045;-85
2023/06/04 00:14:50;;;;;;;6.45;4.22;;;;;;;;;;5043676;28;20092;-86
2023/06/04 00:17:15;;;;;;;7.43;3.97;;;;;;;;;;5056492;28;20037;-86
2023/06/04 00:19:41;;;;;;;7.40;4.30;;;;;;;;;;5051986;28;20119;-85
2023/06/04 00:22:07;;;;;;;6.53;4.30;;;;;;;;;;5049076;28;20483;-86
2023/06/04 00:24:34;;;;;;;11.18;4.10;;;;;;;;;;5046626;28;20022;-86
2023/06/04 00:27:00;;;;;;;9.85;4.40;;;;;;;;;;5043507;28;20048;-86
2023/06/04 00:29:25;;;;;;;6.28;3.85;;;;;;;;;;5040334;28;20017;-86
2023/06/04 00:31:51;;;;;;;7.53;4.20;;;;;;;;;;5020715;28;20515;-86
2023/06/04 00:34:18;;;;;;;8.13;3.90;;;;;;;;;;5037221;28;20483;-87
2023/06/04 00:36:43;;;;;;;6.50;4.30;;;;;;;;;;5031167;28;20051;-86
2023/06/04 00:39:09;;;;;;;6.90;4.13;;;;;;;;;;5048165;28;20041;-86
2023/06/04 00:41:35;;;;;;;5.65;3.90;;;;;;;;;;5027865;28;20461;-86
2023/06/04 00:44:01;;;;;;;7.38;4.20;;;;;;;;;;5041843;28;20033;-86
2023/06/04 00:46:28;;;;;;;6.60;4.00;;;;;;;;;;5005734;28;20080;-86
2023/06/04 00:48:54;;;;;;;6.18;3.95;;;;;;;;;;5038101;28;20093;-86
2023/06/04 00:51:21;;;;;;;7.40;4.40;;;;;;;;;;5019514;28;20053;-86
2023/06/04 00:53:47;;;;;;;5.10;3.72;;;;;;;;;;5037124;28;20037;-86
2023/06/04 00:56:13;;;;;;;6.18;4.00;;;;;;;;;;5037000;28;20064;-85
2023/06/04 00:58:39;;;;;;;6.00;3.92;;;;;;;;;;5019555;28;20484;-86
2023/06/04 01:01:07;;;;;;;6.00;4.07;;;;;;;;;;5037096;28;20112;-85
2023/06/04 01:03:35;;;;;;;5.47;3.58;;;;;;;;;;5017401;28;20057;-86
2023/06/04 01:06:21;;;;;;;6.15;4.15;;;;;;;;;;5020261;28;20502;-86
2023/06/04 01:08:49;;;;;;;8.40;4.45;;;;;;;;;;5035242;28;20116;-85
2023/06/04 01:11:15;;;;;;;7.35;4.40;;;;;;;;;;5019280;28;20056;-86
2023/06/04 01:13:40;;;;;;;6.38;4.10;;;;;;;;;;5037460;28;20036;-86
2023/06/04 01:16:08;;;;;;;9.05;4.03;;;;;;;;;;5037278;28;20029;-86
2023/06/04 01:18:36;;;;;;;6.30;4.18;;;;;;;;;;5019852;28;20115;-86
2023/06/04 01:21:08;;;;;;;7.80;4.13;;;;;;;;;;5028750;28;20056;-84
2023/06/04 01:23:58;;;;;;;7.80;4.03;;;;;;;;;;5036859;28;20502;-84
2023/06/04 01:26:28;;;;;;;6.10;3.90;;;;;;;;;;5034610;28;20052;-86
2023/06/04 01:28:56;;;;;;;6.47;4.10;;;;;;;;;;5033915;28;20036;-85
2023/06/04 01:31:22;;;;;;;7.78;4.30;;;;;;;;;;5021156;28;20032;-83
2023/06/04 01:34:00;;;;;;;7.75;4.18;;;;;;;;;;5033556;28;20501;-84
2023/06/04 01:36:25;;;;;;;10.05;4.43;;;;;;;;;;5046399;28;20040;-84
2023/06/04 01:38:51;;;;;;;7.50;4.30;;;;;;;;;;5025632;28;20029;-84
2023/06/04 01:41:17;;;;;;;7.07;4.45;;;;;;;;;;5022356;28;20025;-84
2023/06/04 01:43:43;;;;;;;6.20;4.20;;;;;;;;;;5035215;28;20079;-86
2023/06/04 01:46:09;;;;;;;5.85;4.25;;;;;;;;;;5016682;28;20216;-86
2023/06/04 01:48:34;;;;;;;8.23;4.30;;;;;;;;;;4999746;28;20506;-86
2023/06/04 01:51:01;;;;;;;8.93;4.90;;;;;;;;;;5023355;28;20029;-84
2023/06/04 01:53:27;;;;;;;6.60;4.03;;;;;;;;;;5039569;28;20120;-83
2023/06/04 01:55:52;;;;;;;6.13;4.18;;;;;;;;;;5018742;28;20066;-84
2023/06/04 01:58:26;;;;;;;8.70;4.25;;;;;;;;;;5027205;28;20024;-84
2023/06/04 02:01:00;;;;;;;7.72;4.35;;;;;;;;;;5030592;28;20506;-84
2023/06/04 02:03:27;;;;;;;6.25;3.95;;;;;;;;;;5044876;28;20037;-84
2023/06/04 02:05:52;;;;;;;5.60;4.10;;;;;;;;;;5020128;28;20037;-85
2023/06/04 02:08:21;;;;;;;5.60;3.95;;;;;;;;;;5021317;28;20056;-85
2023/06/04 02:10:47;;;;;;;8.35;4.10;;;;;;;;;;5002974;28;20095;-85
2023/06/04 02:13:14;;;;;;;7.45;4.43;;;;;;;;;;5020499;28;20044;-85
2023/06/04 02:15:40;;;;;;;6.70;3.90;;;;;;;;;;5039281;28;20112;-85
2023/06/04 02:18:16;;;;;;;8.80;4.22;;;;;;;;;;5027180;28;20514;-86
2023/06/04 02:20:45;;;;;;;10.30;4.47;;;;;;;;;;5010217;28;20049;-85
2023/06/04 02:23:11;;;;;;;5.78;3.97;;;;;;;;;;5007708;28;20040;-85
2023/06/04 02:25:36;;;;;;;6.32;4.25;;;;;;;;;;5032725;28;20112;-85
2023/06/04 02:28:02;;;;;;;6.75;4.22;;;;;;;;;;5055814;28;20037;-85
2023/06/04 02:30:27;;;;;;;11.10;4.30;;;;;;;;;;5034985;28;20041;-85
2023/06/04 02:32:54;;;;;;;5.70;4.25;;;;;;;;;;5049177;28;20037;-86
2023/06/04 02:35:22;;;;;;;6.28;4.68;;;;;;;;;;5046394;28;20077;-85
2023/06/04 02:37:49;;;;;;;5.78;4.13;;;;;;;;;;5037755;28;20037;-86
2023/06/04 02:40:14;;;;;;;5.95;4.18;;;;;;;;;;5039037;28;20045;-85
2023/06/04 02:42:40;;;;;;;7.57;4.43;;;;;;;;;;5055505;28;20075;-85
2023/06/04 02:45:06;;;;;;;7.97;4.38;;;;;;;;;;5037476;28;20068;-84
2023/06/04 02:47:32;;;;;;;5.53;4.55;;;;;;;;;;5051209;28;20064;-86
2023/06/04 02:49:58;;;;;;;8.20;4.53;;;;;;;;;;5014064;28;20025;-85
2023/06/04 02:52:25;;;;;;;7.45;4.20;;;;;;;;;;5045826;28;20059;-85
2023/06/04 02:54:51;;;;;;;8.30;4.70;;;;;;;;;;5021704;28;20025;-84
2023/06/04 02:57:16;;;;;;;7.53;4.32;;;;;;;;;;5019317;28;20390;-84
2023/06/04 02:59:42;;;;;;;6.75;4.18;;;;;;;;;;5018749;28;20041;-84
2023/06/04 03:02:07;;;;;;;9.57;4.50;;;;;;;;;;5011141;28;20108;-84
2023/06/04 03:04:34;;;;;;;6.85;4.32;;;;;;;;;;5027411;28;20040;-85
2023/06/04 03:07:04;;;;;;;6.80;4.57;;;;;;;;;;5044347;28;20514;-85
2023/06/04 03:09:33;;;;;;;6.15;4.03;;;;;;;;;;5040281;28;20045;-86
2023/06/04 03:12:02;;;;;;;7.18;4.70;;;;;;;;;;5038408;28;20041;-86
2023/06/04 03:14:32;;;;;;;8.63;4.40;;;;;;;;;;5014062;28;20034;-85
2023/06/04 03:17:07;;;;;;;7.20;4.53;;;;;;;;;;5020493;28;20495;-84
2023/06/04 03:19:38;;;;;;;10.90;4.60;;;;;;;;;;5029480;28;20056;-85
2023/06/04 03:22:07;;;;;;;6.25;4.47;;;;;;;;;;5019446;28;20449;-85
2023/06/04 03:24:35;;;;;;;11.05;5.13;;;;;;;;;;5022366;28;20034;-85
2023/06/04 03:27:02;;;;;;;7.13;4.10;;;;;;;;;;5038514;28;20083;-85
2023/06/04 03:29:27;;;;;;;7.45;4.60;;;;;;;;;;5037263;28;20025;-85
2023/06/04 03:31:53;;;;;;;6.68;4.68;;;;;;;;;;5019126;28;20030;-85
2023/06/04 03:34:20;;;;;;;6.20;4.18;;;;;;;;;;5019275;28;20064;-85
2023/06/04 03:36:46;;;;;;;7.80;4.60;;;;;;;;;;5025352;28;20423;-85
2023/06/04 03:39:11;;;;;;;6.05;4.03;;;;;;;;;;5042662;28;20039;-84
2023/06/04 03:41:37;;;;;;;6.38;4.47;;;;;;;;;;5023362;28;20029;-85
2023/06/04 03:44:03;;;;;;;8.75;5.10;;;;;;;;;;5037645;28;20045;-85
2023/06/04 03:46:33;;;;;;;7.57;4.47;;;;;;;;;;5019398;28;20034;-85
2023/06/04 03:48:59;;;;;;;8.70;4.25;;;;;;;;;;5002606;28;20124;-86
2023/06/04 03:51:26;;;;;;;5.57;4.40;;;;;;;;;;5027309;28;20100;-85
2023/06/04 03:53:53;;;;;;;9.35;4.65;;;;;;;;;;5017091;28;20037;-85
2023/06/04 03:56:19;;;;;;;8.13;4.25;;;;;;;;;;5020680;28;20033;-85
2023/06/04 03:58:45;;;;;;;7.57;4.20;;;;;;;;;;5023382;28;20087;-85
2023/06/04 04:01:11;;;;;;;9.15;4.88;;;;;;;;;;5028908;28;20029;-85
2023/06/04 04:03:36;;;;;;;6.82;4.70;;;;;;;;;;5034108;28;20162;-85
2023/06/04 04:06:03;;;;;;;7.85;4.60;;;;;;;;;;5031790;28;20120;-85
2023/06/04 04:08:31;;;;;;;6.85;4.43;;;;;;;;;;5047282;28;20499;-86
2023/06/04 04:10:58;;;;;;;7.10;4.78;;;;;;;;;;5025182;28;20044;-85
2023/06/04 04:13:23;;;;;;;9.77;4.70;;;;;;;;;;5040152;28;20040;-85
2023/06/04 04:15:52;;;;;;;11.98;5.85;;;;;;;;;;5018877;28;20038;-85
2023/06/04 04:18:20;;;;;;;6.65;4.38;;;;;;;;;;5012277;28;20037;-85
2023/06/04 04:20:46;;;;;;;11.23;6.75;;;;;;;;;;5018686;28;20045;-85
2023/06/04 04:23:13;;;;;;;7.60;5.68;;;;;;;;;;5017735;28;20041;-85
2023/06/04 04:25:41;;;;;;;9.02;4.80;;;;;;;;;;5024663;28;20040;-85
2023/06/04 04:28:07;;;;;;;6.28;4.82;;;;;;;;;;5042655;28;20026;-85
2023/06/04 04:30:34;;;;;;;8.13;4.75;;;;;;;;;;5021173;28;20541;-85
2023/06/04 04:33:05;;;;;;;7.55;5.00;;;;;;;;;;5018335;28;20495;-85
2023/06/04 04:35:35;;;;;;;7.40;4.97;;;;;;;;;;5035277;28;20036;-85
2023/06/04 04:38:03;;;;;;;9.18;5.28;;;;;;;;;;5032277;28;20033;-86
2023/06/04 04:40:31;;;;;;;8.80;5.45;;;;;;;;;;5028852;28;20062;-85
2023/06/04 04:42:58;;;;;;;7.80;5.03;;;;;;;;;;5026126;28;20112;-85
2023/06/04 04:45:24;;;;;;;7.30;5.13;;;;;;;;;;5023532;28;20403;-85
2023/06/04 04:47:52;;;;;;;10.27;5.50;;;;;;;;;;5020133;28;20121;-85
2023/06/04 04:50:17;;;;;;;7.10;5.20;;;;;;;;;;5018045;28;20084;-85
2023/06/04 04:52:43;;;;;;;8.48;5.70;;;;;;;;;;5017431;28;20120;-85
2023/06/04 04:55:09;;;;;;;8.25;5.40;;;;;;;;;;5017385;28;20083;-85
2023/06/04 04:57:36;;;;;;;8.50;5.55;;;;;;;;;;5009032;28;20110;-85
2023/06/04 05:00:05;;;;;;;8.07;5.72;;;;;;;;;;5009117;28;20491;-84
2023/06/04 05:02:31;;;;;;;9.32;5.47;;;;;;;;;;5019940;28;20501;-84
2023/06/04 05:04:57;;;;;;;11.10;5.72;;;;;;;;;;5018720;28;20567;-85
2023/06/04 05:07:24;;;;;;;7.38;5.00;;;;;;;;;;5031317;28;20032;-85
2023/06/04 05:09:50;;;;;;;7.10;5.20;;;;;;;;;;5032623;28;20033;-85
2023/06/04 05:12:17;;;;;;;9.20;5.57;;;;;;;;;;5048325;28;20029;-86
2023/06/04 05:14:43;;;;;;;9.68;5.28;;;;;;;;;;5027185;28;20033;-86
2023/06/04 05:17:10;;;;;;;8.45;5.82;;;;;;;;;;5041227;28;20064;-85
2023/06/04 05:19:37;;;;;;;8.18;5.50;;;;;;;;;;5021011;28;20038;-85
2023/06/04 05:22:03;;;;;;;8.68;5.43;;;;;;;;;;5018648;28;20037;-85
2023/06/04 05:24:31;;;;;;;6.45;4.90;;;;;;;;;;5016948;28;20037;-85
2023/06/04 05:26:58;;;;;;;7.22;5.00;;;;;;;;;;5001182;28;20038;-85
2023/06/04 05:29:25;;;;;;;8.43;4.50;;;;;;;;;;5023818;28;20099;-85
2023/06/04 05:31:51;;;;;;;7.93;4.47;;;;;;;;;;5009934;28;20106;-85
2023/06/04 05:34:21;;;;;;;8.88;5.18;;;;;;;;;;5022805;28;20033;-85
2023/06/04 05:36:48;;;;;;;10.05;4.18;;;;;;;;;;5018872;28;20064;-85
2023/06/04 05:39:14;;;;;;;7.13;4.25;;;;;;;;;;5016917;28;20050;-86
2023/06/04 05:41:47;;;;;;;8.27;4.93;;;;;;;;;;5017225;28;20035;-85
2023/06/04 05:44:14;;;;;;;7.80;4.55;;;;;;;;;;5016980;28;20033;-85
2023/06/04 05:46:40;;;;;;;9.18;4.63;;;;;;;;;;5000661;28;20030;-86
2023/06/04 05:49:06;;;;;;;7.20;4.55;;;;;;;;;;5006552;28;20032;-85
2023/06/04 05:51:31;;;;;;;7.38;4.60;;;;;;;;;;5022349;28;20557;-86
2023/06/04 05:53:57;;;;;;;6.10;3.92;;;;;;;;;;5019069;28;20033;-86
2023/06/04 05:56:23;;;;;;;5.88;4.10;;;;;;;;;;5028530;28;20060;-85
2023/06/04 05:58:52;;;;;;;6.47;3.97;;;;;;;;;;5016706;28;20513;-85
2023/06/04 06:01:19;;;;;;;6.38;3.88;;;;;;;;;;5012898;28;20088;-86
2023/06/04 06:03:46;;;;;;;6.97;3.95;;;;;;;;;;5027818;28;20029;-85
2023/06/04 06:06:12;;;;;;;5.75;4.03;;;;;;;;;;5025027;28;20033;-85
2023/06/04 06:08:38;;;;;;;5.38;3.83;;;;;;;;;;5037576;28;20430;-83
2023/06/04 06:11:05;;;;;;;8.52;4.50;;;;;;;;;;5019127;28;20461;-83
2023/06/04 06:13:31;;;;;;;6.95;3.92;;;;;;;;;;5034593;28;20041;-84
2023/06/04 06:15:57;;;;;;;8.90;4.40;;;;;;;;;;5031154;28;20524;-83
2023/06/04 06:18:23;;;;;;;8.48;4.20;;;;;;;;;;5028406;28;20061;-82
2023/06/04 06:20:48;;;;;;;11.20;4.68;;;;;;;;;;5026013;28;20384;-81
2023/06/04 06:23:15;;;;;;;9.05;4.60;;;;;;;;;;5022138;28;20033;-83
2023/06/04 06:25:45;;;;;;;5.90;4.60;;;;;;;;;;5019966;28;20057;-82
2023/06/04 06:28:15;;;;;;;7.15;4.75;;;;;;;;;;5018428;28;20064;-83
2023/06/04 06:30:41;;;;;;;12.85;4.65;;;;;;;;;;5017520;28;20044;-84
2023/06/04 06:33:08;;;;;;;8.77;4.57;;;;;;;;;;5049804;28;20431;-84
2023/06/04 06:35:33;;;;;;;6.97;4.85;;;;;;;;;;5045533;28;20044;-84
2023/06/04 06:37:59;;;;;;;10.82;4.65;;;;;;;;;;5025229;28;20033;-83
2023/06/04 06:40:25;;;;;;;8.38;5.10;;;;;;;;;;5040888;28;20048;-83
2023/06/04 06:42:53;;;;;;;9.82;4.43;;;;;;;;;;5019207;28;20034;-84
2023/06/04 06:45:19;;;;;;;9.57;4.88;;;;;;;;;;5035076;28;20166;-85
2023/06/04 06:47:45;;;;;;;7.55;4.57;;;;;;;;;;5031475;28;20048;-83
2023/06/04 06:50:10;;;;;;;8.35;4.68;;;;;;;;;;5050350;28;20084;-84
2023/06/04 06:52:36;;;;;;;8.93;4.40;;;;;;;;;;5029570;28;20470;-83
2023/06/04 06:55:03;;;;;;;6.25;4.30;;;;;;;;;;5024319;28;20116;-83
2023/06/04 06:57:29;;;;;;;9.30;4.55;;;;;;;;;;5037115;28;20045;-84
2023/06/04 06:59:55;;;;;;;8.07;4.55;;;;;;;;;;5037612;28;20095;-83
2023/06/04 07:02:20;;;;;;;5.75;4.45;;;;;;;;;;5054610;28;20064;-82
2023/06/04 07:04:46;;;;;;;9.07;4.20;;;;;;;;;;5034293;28;20044;-82
2023/06/04 07:07:11;;;;;;;5.78;3.92;;;;;;;;;;5049280;28;20171;-84
2023/06/04 07:09:37;;;;;;;6.32;4.25;;;;;;;;;;5046633;28;20088;-83
2023/06/04 07:12:02;;;;;;;7.13;4.15;;;;;;;;;;5044261;28;20040;-84
2023/06/04 07:14:28;;;;;;;6.72;4.13;;;;;;;;;;5023632;28;20064;-83
2023/06/04 07:16:53;;;;;;;10.65;3.80;;;;;;;;;;5022318;28;20045;-84
2023/06/04 07:19:19;;;;;;;6.13;3.58;;;;;;;;;;5037905;28;20059;-86
2023/06/04 07:21:45;;;;;;;6.05;3.95;;;;;;;;;;5038351;28;20029;-86
2023/06/04 07:24:10;;;;;;;7.22;4.00;;;;;;;;;;5038601;28;20411;-87
2023/06/04 07:26:36;;;;;;;6.13;3.72;;;;;;;;;;5026203;28;20040;-84
2023/06/04 07:29:02;;;;;;;9.60;3.53;;;;;;;;;;5048657;28;20058;-84
2023/06/04 07:31:27;;;;;;;8.73;4.10;;;;;;;;;;5028382;28;20037;-85
2023/06/04 07:33:53;;;;;;;14.48;3.97;;;;;;;;;;5024165;28;20562;-84
2023/06/04 07:36:20;;;;;;;4.97;3.47;;;;;;;;;;5038780;28;20041;-86
2023/06/04 07:38:46;;;;;;;7.90;3.80;;;;;;;;;;5026034;28;20455;-85
2023/06/04 07:41:11;;;;;;;7.13;3.67;;;;;;;;;;5031810;28;20047;-86
2023/06/04 07:43:37;;;;;;;6.53;3.70;;;;;;;;;;5045781;28;20094;-86
2023/06/04 07:46:06;;;;;;;6.32;3.88;;;;;;;;;;5043102;28;20048;-86
2023/06/04 07:48:31;;;;;;;6.13;4.05;;;;;;;;;;5018204;28;20037;-86
2023/06/04 07:51:01;;;;;;;7.03;4.07;;;;;;;;;;5036837;28;20156;-86
2023/06/04 07:53:27;;;;;;;5.88;4.13;;;;;;;;;;5037275;28;20092;-86
2023/06/04 07:55:53;;;;;;;7.47;4.60;;;;;;;;;;5037355;28;20075;-86
2023/06/04 07:58:19;;;;;;;9.63;4.55;;;;;;;;;;5037522;28;20037;-86
2023/06/04 08:00:45;;;;;;;7.18;4.40;;;;;;;;;;5037973;28;20044;-88
2023/06/04 08:03:11;;;;;;;9.05;4.80;;;;;;;;;;5040162;28;20057;-86
2023/06/04 08:05:36;;;;;;;7.97;4.40;;;;;;;;;;5041594;28;20032;-86
2023/06/04 08:08:03;;;;;;;7.88;5.10;;;;;;;;;;5054809;28;20037;-86
2023/06/04 08:10:29;;;;;;;7.43;4.38;;;;;;;;;;5045543;28;20032;-86
2023/06/04 08:12:55;;;;;;;8.57;5.07;;;;;;;;;;5029503;28;20022;-87
2023/06/04 08:15:20;;;;;;;9.18;4.88;;;;;;;;;;5042615;28;20033;-86
2023/06/04 08:17:47;;;;;;;9.32;4.80;;;;;;;;;;5020585;28;20042;-88
2023/06/04 08:20:12;;;;;;;9.07;4.70;;;;;;;;;;5005195;28;20076;-86
2023/06/04 08:22:38;;;;;;;8.55;4.90;;;;;;;;;;5037576;28;20029;-86
2023/06/04 08:25:04;;;;;;;8.88;4.57;;;;;;;;;;5010404;28;20033;-87
2023/06/04 08:27:30;;;;;;;7.65;4.35;;;;;;;;;;5035739;28;20033;-86
2023/06/04 08:29:57;;;;;;;8.95;3.95;;;;;;;;;;5019154;28;20041;-86
2023/06/04 08:32:23;;;;;;;6.15;3.88;;;;;;;;;;5026500;28;20037;-87
2023/06/04 08:34:49;;;;;;;5.78;3.78;;;;;;;;;;5036378;28;20493;-87
2023/06/04 08:37:15;;;;;;;9.18;3.70;;;;;;;;;;5018311;28;20068;-86
2023/06/04 08:39:41;;;;;;;6.88;3.70;;;;;;;;;;5036387;28;20034;-86
2023/06/04 08:42:09;;;;;;;6.15;3.97;;;;;;;;;;5021305;28;20037;-86
2023/06/04 08:44:35;;;;;;;5.35;3.42;;;;;;;;;;5032868;28;20463;-87
2023/06/04 08:47:08;;;;;;;6.90;3.40;;;;;;;;;;5019101;28;20068;-87
2023/06/04 08:49:38;;;;;;;5.47;3.30;;;;;;;;;;5039737;28;20025;-87
2023/06/04 08:52:05;;;;;;;5.03;3.20;;;;;;;;;;5038571;28;20037;-87
2023/06/04 08:54:32;;;;;;;7.72;3.20;;;;;;;;;;5045034;28;20025;-87
2023/06/04 08:56:58;;;;;;;5.97;3.28;;;;;;;;;;5017217;28;20026;-87
2023/06/04 08:59:23;;;;;;;6.18;3.33;;;;;;;;;;5034099;28;20360;-86
2023/06/04 09:01:53;;;;;;;5.35;3.28;;;;;;;;;;5038620;28;20025;-85
2023/06/04 09:04:18;;;;;;;5.05;3.15;;;;;;;;;;5008917;28;20033;-85
2023/06/04 09:06:45;;;;;;;7.25;2.95;;;;;;;;;;5020205;28;20034;-85
2023/06/04 09:09:13;;;;;;;7.43;3.10;;;;;;;;;;5021012;28;20029;-87
2023/06/04 09:11:55;;;;;;;4.95;2.90;;;;;;;;;;5032066;28;20036;-87
2023/06/04 09:14:21;;;;;;;4.32;3.13;;;;;;;;;;5030710;28;20052;-86
2023/06/04 09:16:51;;;;;;;6.30;3.05;;;;;;;;;;5016019;28;20097;-87
2023/06/04 09:19:17;;;;;;;7.95;2.90;;;;;;;;;;5036193;28;20087;-86
2023/06/04 09:22:02;;;;;;;8.95;2.90;;;;;;;;;;5016471;28;20112;-85
2023/06/04 09:24:40;;;;;;;9.23;2.80;;;;;;;;;;5033312;28;20037;-87
2023/06/04 09:27:16;;;;;;;4.60;2.90;;;;;;;;;;5028138;28;20035;-86
2023/06/04 09:29:58;;;;;;;5.57;2.90;;;;;;;;;;5041387;28;20125;-86
2023/06/04 09:32:26;;;;;;;9.68;3.17;;;;;;;;;;5017057;28;20065;-86
2023/06/04 09:34:57;;;;;;;6.90;2.75;;;;;;;;;;5043318;28;20111;-86
2023/06/04 09:37:23;;;;;;;7.72;2.80;;;;;;;;;;5020337;28;20418;-86
2023/06/04 09:39:55;;;;;;;13.23;2.75;;;;;;;;;;5032971;28;20094;-86
2023/06/04 09:42:24;;;;;;;6.03;2.53;;;;;;;;;;5029762;28;20513;-86
2023/06/04 09:44:49;;;;;;;7.22;2.90;;;;;;;;;;5029142;28;20048;-86
2023/06/04 09:47:15;;;;;;;6.28;2.80;;;;;;;;;;5043188;28;20034;-86
2023/06/04 09:49:50;;;;;;;4.32;2.80;;;;;;;;;;5017412;28;20416;-86
2023/06/04 09:52:16;;;;;;;5.70;2.60;;;;;;;;;;5050081;28;20560;-87
2023/06/04 09:54:42;;;;;;;17.90;2.85;;;;;;;;;;5054916;28;20047;-87
2023/06/04 09:57:18;;;;;;;7.30;2.88;;;;;;;;;;5059337;28;20036;-86
2023/06/04 09:59:46;;;;;;;4.88;2.53;;;;;;;;;;5030997;28;20132;-86
2023/06/04 10:02:13;;;;;;;7.13;2.90;;;;;;;;;;5040714;28;20029;-85
2023/06/04 10:04:45;;;;;;;6.88;2.80;;;;;;;;;;5023972;28;20033;-86
2023/06/04 10:07:12;;;;;;;5.97;2.85;;;;;;;;;;5041136;28;20080;-86
2023/06/04 10:09:45;;;;;;;7.50;2.78;;;;;;;;;;5054725;28;20411;-88
2023/06/04 10:12:14;;;;;;;;;;;;;;;;;;5015653;28;20036;-85
2023/06/04 10:14:45;;;;;;;6.60;2.70;;;;;;;;;;5036327;28;19975;-87
2023/06/04 10:17:12;;;;;;;7.30;2.70;;;;;;;;;;5043695;28;20033;-85
2023/06/04 10:19:40;;;;;;;5.95;3.00;;;;;;;;;;5041993;28;20034;-88
2023/06/04 10:22:05;;;;;;;6.10;3.30;;;;;;;;;;5019512;28;20041;-87
2023/06/04 10:24:31;;;;;;;4.18;2.85;;;;;;;;;;5024792;28;20044;-87
2023/06/04 10:27:01;;;;;;;5.03;2.80;;;;;;;;;;5031026;28;20045;-88
2023/06/04 10:29:29;;;;;;;5.68;2.85;;;;;;;;;;5034123;28;20067;-87
2023/06/04 10:31:55;;;;;;;4.47;2.90;;;;;;;;;;5021296;28;20041;-87
2023/06/04 10:34:21;;;;;;;6.90;3.00;;;;;;;;;;5023588;28;20041;-88
2023/06/04 10:36:47;;;;;;;4.45;3.10;;;;;;;;;;5041276;28;20685;-87
2023/06/04 10:39:12;;;;;;;5.90;3.20;;;;;;;;;;5025177;28;20087;-86
2023/06/04 10:41:38;;;;;;;4.53;2.88;;;;;;;;;;5039995;28;20052;-87
2023/06/04 10:44:04;;;;;;;5.65;2.80;;;;;;;;;;5041519;28;20661;-87
2023/06/04 10:46:40;;;;;;;8.68;2.90;;;;;;;;;;5042561;28;20368;-87
2023/06/04 10:49:06;;;;;;;5.07;2.95;;;;;;;;;;5048448;28;20028;-89
2023/06/04 10:51:33;;;;;;;7.40;3.10;;;;;;;;;;5013974;28;20038;-87
2023/06/04 10:54:00;;;;;;;4.75;3.00;;;;;;;;;;5043571;28;20045;-88
2023/06/04 10:56:34;;;;;;;5.40;2.90;;;;;;;;;;5049032;28;20048;-88
2023/06/04 10:59:01;;;;;;;7.35;3.45;;;;;;;;;;5044578;28;20035;-88
2023/06/04 11:01:28;;;;;;;5.82;3.13;;;;;;;;;;5040335;28;20238;-87
2023/06/04 11:03:55;;;;;;;6.68;3.35;;;;;;;;;;5043747;28;20052;-88
2023/06/04 11:06:21;;;;;;;8.75;3.30;;;;;;;;;;5026336;28;20094;-88
2023/06/04 11:08:47;;;;;;;8.60;3.90;;;;;;;;;;5030284;28;20083;-89
2023/06/04 11:11:14;;;;;;;4.00;3.00;;;;;;;;;;5011112;28;20029;-86
2023/06/04 11:13:41;;;;;;;7.07;3.30;;;;;;;;;;5039714;28;20034;-87
2023/06/04 11:16:20;;;;;;;6.13;3.30;;;;;;;;;;5026201;28;20667;-88
2023/06/04 11:19:02;;;;;;;6.53;3.25;;;;;;;;;;5039608;28;20128;-88
2023/06/04 11:21:28;;;;;;;5.95;3.20;;;;;;;;;;5053094;28;20047;-88
2023/06/04 11:24:00;;;;;;;9.35;3.30;;;;;;;;;;5051958;28;20026;-87
2023/06/04 11:26:31;;;;;;;4.78;3.15;;;;;;;;;;5031361;28;20053;-88
2023/06/04 11:28:56;;;;;;;6.80;3.00;;;;;;;;;;5028076;28;20048;-88
2023/06/04 11:31:22;;;;;;;6.82;3.28;;;;;;;;;;5043555;28;20041;-88
2023/06/04 11:33:48;;;;;;;6.70;3.20;;;;;;;;;;5033768;28;20047;-87
2023/06/04 11:36:27;;;;;;;6.65;3.15;;;;;;;;;;5036698;28;20534;-87
2023/06/04 11:39:06;;;;;;;6.63;3.60;;;;;;;;;;5050545;28;20487;-87
2023/06/04 11:41:33;;;;;;;7.35;3.10;;;;;;;;;;5046061;28;20029;-87
2023/06/04 11:44:03;;;;;;;5.03;3.67;;;;;;;;;;5027417;28;20049;-87
2023/06/04 11:46:30;;;;;;;4.97;3.22;;;;;;;;;;5051440;28;20059;-87
2023/06/04 11:48:55;;;;;;;6.22;3.08;;;;;;;;;;5045519;28;20083;-87
2023/06/04 11:51:21;;;;;;;5.30;3.20;;;;;;;;;;5057545;28;20033;-87
2023/06/04 11:53:47;;;;;;;6.03;3.38;;;;;;;;;;5054602;28;20052;-89
2023/06/04 11:56:13;;;;;;;5.38;3.40;;;;;;;;;;5019065;28;20445;-88
2023/06/04 11:58:40;;;;;;;5.80;3.50;;;;;;;;;;5048211;28;20105;-87
2023/06/04 12:01:08;;;;;;;5.93;3.17;;;;;;;;;;5046295;28;20038;-87
2023/06/04 12:03:41;;;;;;;9.48;3.30;;;;;;;;;;5046729;28;20041;-87
2023/06/04 12:06:16;;;;;;;;;;;;;;;;;;5057849;28;20040;-85
2023/06/04 12:08:58;;;;;;;7.85;3.20;;;;;;;;;;5056487;28;19948;-88
2023/06/04 12:11:32;;;;;;;5.22;3.10;;;;;;;;;;5053116;28;20042;-88
2023/06/04 12:14:00;;;;;;;5.50;3.40;;;;;;;;;;5047443;28;20044;-89
2023/06/04 12:16:26;;;;;;;7.40;3.38;;;;;;;;;;5046584;28;20034;-88
2023/06/04 12:18:52;;;;;;;7.45;3.15;;;;;;;;;;5043719;28;20041;-88
2023/06/04 12:21:21;;;;;;;6.60;3.20;;;;;;;;;;5042144;28;20461;-88
2023/06/04 12:23:47;;;;;;;8.10;3.08;;;;;;;;;;5042111;28;20045;-88
2023/06/04 12:26:28;;;;;;;4.95;3.03;;;;;;;;;;5041533;28;20029;-88
2023/06/04 12:29:01;;;;;;;6.03;3.10;;;;;;;;;;5041253;28;20037;-88
2023/06/04 12:31:31;;;;;;;8.10;3.20;;;;;;;;;;5040940;28;20029;-88
2023/06/04 12:34:00;;;;;;;5.43;3.35;;;;;;;;;;5023484;28;20103;-88
2023/06/04 12:36:28;;;;;;;7.13;3.50;;;;;;;;;;5042626;28;20061;-88
2023/06/04 12:38:58;;;;;;;7.43;3.20;;;;;;;;;;5008003;28;20534;-88
2023/06/04 12:41:25;;;;;;;5.43;3.38;;;;;;;;;;5041112;28;20029;-88
2023/06/04 12:43:50;;;;;;;6.32;3.10;;;;;;;;;;5023078;28;20037;-88
2023/06/04 12:46:16;;;;;;;7.35;3.25;;;;;;;;;;5041688;28;20040;-88
2023/06/04 12:48:41;;;;;;;7.82;3.42;;;;;;;;;;5028100;28;20032;-88
2023/06/04 12:51:10;;;;;;;6.43;3.33;;;;;;;;;;5044105;28;20038;-88
2023/06/04 12:53:38;;;;;;;4.90;3.35;;;;;;;;;;5044434;28;20033;-88
2023/06/04 12:56:04;;;;;;;6.00;3.50;;;;;;;;;;5026320;28;20095;-88
2023/06/04 12:58:30;;;;;;;5.50;3.20;;;;;;;;;;5045997;28;20033;-88
2023/06/04 13:00:55;;;;;;;5.80;3.20;;;;;;;;;;5048889;28;20380;-88
2023/06/04 13:03:21;;;;;;;4.85;3.10;;;;;;;;;;5049147;28;20065;-88
2023/06/04 13:05:46;;;;;;;6.47;3.28;;;;;;;;;;5046474;28;20037;-88
2023/06/04 13:08:12;;;;;;;7.68;3.20;;;;;;;;;;5047496;28;20036;-88
2023/06/04 13:10:37;;;;;;;5.47;3.08;;;;;;;;;;5046410;28;20048;-88
2023/06/04 13:13:03;;;;;;;4.82;3.38;;;;;;;;;;5045305;28;20031;-88
2023/06/04 13:15:29;;;;;;;9.07;3.15;;;;;;;;;;5044084;28;20063;-88
2023/06/04 13:17:54;;;;;;;5.63;3.17;;;;;;;;;;5044509;28;20041;-87
2023/06/04 13:20:20;;;;;;;5.63;3.28;;;;;;;;;;5042221;28;20510;-88
2023/06/04 13:22:46;;;;;;;6.55;3.20;;;;;;;;;;5027833;28;20029;-88
2023/06/04 13:25:12;;;;;;;8.13;3.33;;;;;;;;;;5043499;28;20037;-88
2023/06/04 13:27:38;;;;;;;5.10;3.33;;;;;;;;;;5042324;28;20053;-87
2023/06/04 13:30:05;;;;;;;6.07;3.60;;;;;;;;;;5035311;28;20091;-87
2023/06/04 13:32:31;;;;;;;5.70;3.30;;;;;;;;;;5036261;28;20140;-87
2023/06/04 13:34:56;;;;;;;4.82;3.38;;;;;;;;;;5051328;28;20050;-87
2023/06/04 13:37:22;;;;;;;7.75;3.50;;;;;;;;;;5027699;28;20045;-87
2023/06/04 13:39:47;;;;;;;4.90;3.30;;;;;;;;;;5043515;28;20084;-87
2023/06/04 13:42:13;;;;;;;4.97;3.30;;;;;;;;;;5030762;28;20035;-87
2023/06/04 13:44:38;;;;;;;4.35;3.30;;;;;;;;;;5057120;28;20060;-88
2023/06/04 13:47:04;;;;;;;6.75;3.30;;;;;;;;;;5055774;28;20032;-87
2023/06/04 13:49:33;;;;;;;5.93;3.10;;;;;;;;;;5017973;28;20037;-87
2023/06/04 13:51:58;;;;;;;6.18;3.55;;;;;;;;;;5028369;28;20025;-87
2023/06/04 13:54:24;;;;;;;7.22;3.33;;;;;;;;;;5044121;28;20088;-87
2023/06/04 13:56:49;;;;;;;7.15;3.42;;;;;;;;;;5042426;28;20044;-87
2023/06/04 13:59:15;;;;;;;5.53;3.22;;;;;;;;;;5043539;28;20061;-87
2023/06/04 14:01:40;;;;;;;5.00;3.28;;;;;;;;;;5026220;28;20093;-87
2023/06/04 14:04:06;;;;;;;4.32;3.20;;;;;;;;;;5044649;28;20029;-87
2023/06/04 14:06:32;;;;;;;4.43;3.20;;;;;;;;;;5034211;28;20034;-87
2023/06/04 14:08:58;;;;;;;4.40;3.08;;;;;;;;;;5051681;28;20522;-87
2023/06/04 14:11:24;;;;;;;7.88;3.35;;;;;;;;;;5045240;28;20037;-87
2023/06/04 14:13:49;;;;;;;6.88;3.03;;;;;;;;;;5046367;28;20044;-87
2023/06/04 14:16:15;;;;;;;5.18;3.20;;;;;;;;;;5044948;28;20068;-88
2023/06/04 14:18:40;;;;;;;8.48;3.45;;;;;;;;;;5059890;28;20583;-89
2023/06/04 14:21:06;;;;;;;6.75;3.30;;;;;;;;;;5055503;28;20032;-88
2023/06/04 14:23:31;;;;;;;5.90;3.08;;;;;;;;;;5053543;28;20036;-88
2023/06/04 14:25:57;;;;;;;5.07;3.22;;;;;;;;;;5052131;28;20045;-88
2023/06/04 14:28:22;;;;;;;6.63;3.20;;;;;;;;;;5048390;28;20034;-89
2023/06/04 14:30:48;;;;;;;6.18;3.30;;;;;;;;;;5045388;28;20041;-88
2023/06/04 14:33:13;;;;;;;6.03;3.33;;;;;;;;;;5026606;28;20045;-88
2023/06/04 14:35:44;;;;;;;8.23;3.30;;;;;;;;;;5045126;28;20053;-88
2023/06/04 14:38:14;;;;;;;5.68;3.20;;;;;;;;;;5009434;28;20029;-88
2023/06/04 14:40:41;;;;;;;5.15;3.25;;;;;;;;;;5010635;28;20642;-88
2023/06/04 14:43:07;;;;;;;7.53;3.40;;;;;;;;;;5031188;28;20487;-88